sensor_id;sensor_type;location;lat;lon;timestamp;P1;durP1;ratioP1;P2;durP2;ratioP2
77880;SDS011;67077;50.298;18.996;2023-04-24T00:02:12;14.90;;;8.80;;
77880;SDS011;67077;50.298;18.996;2023-04-24T00:04:41;16.50;;;8.60;;
77880;SDS011;67077;50.298;18.996;2023-04-24T00:07:12;16.90;;;9.00;;
77880;SDS011;67077;50.298;18.996;2023-04-24T00:09:40;13.50;;;8.50;;
77880;SDS011;67077;50.298;18.996;2023-04-24T00:12:08;13.00;;;8.60;;
77880;SDS011;67077;50.298;18.996;2023-04-24T00:14:37;15.10;;;8.70;;
77880;SDS011;67077;50.298;18.996;2023-04-24T00:17:05;14.70;;;8.70;;
77880;SDS011;67077;50.298;18.996;2023-04-24T00:19:33;13.10;;;7.70;;
77880;SDS011;67077;50.298;18.996;2023-04-24T00:22:02;14.00;;;8.10;;
77880;SDS011;67077;50.298;18.996;2023-04-24T00:24:31;11.40;;;7.50;;
77880;SDS011;67077;50.298;18.996;2023-04-24T00:26:59;12.10;;;7.60;;
77880;SDS011;67077;50.298;18.996;2023-04-24T00:29:28;14.40;;;7.90;;
77880;SDS011;67077;50.298;18.996;2023-04-24T00:31:56;12.80;;;7.80;;
77880;SDS011;67077;50.298;18.996;2023-04-24T00:34:24;17.70;;;9.00;;
77880;SDS011;67077;50.298;18.996;2023-04-24T00:36:52;14.00;;;9.10;;
77880;SDS011;67077;50.298;18.996;2023-04-24T00:39:21;18.50;;;10.00;;
77880;SDS011;67077;50.298;18.996;2023-04-24T00:41:50;17.40;;;11.30;;
77880;SDS011;67077;50.298;18.996;2023-04-24T00:44:18;21.30;;;13.20;;
77880;SDS011;67077;50.298;18.996;2023-04-24T00:46:47;23.50;;;13.70;;
77880;SDS011;67077;50.298;18.996;2023-04-24T00:49:21;23.20;;;13.30;;
77880;SDS011;67077;50.298;18.996;2023-04-24T00:51:50;22.30;;;14.20;;
77880;SDS011;67077;50.298;18.996;2023-04-24T00:54:18;24.40;;;13.80;;
77880;SDS011;67077;50.298;18.996;2023-04-24T00:56:49;23.40;;;13.80;;
77880;SDS011;67077;50.298;18.996;2023-04-24T00:59:19;22.20;;;13.30;;
77880;SDS011;67077;50.298;18.996;2023-04-24T01:01:47;21.80;;;13.30;;
77880;SDS011;67077;50.298;18.996;2023-04-24T01:04:15;22.40;;;12.70;;
77880;SDS011;67077;50.298;18.996;2023-04-24T01:06:45;21.60;;;13.50;;
77880;SDS011;67077;50.298;18.996;2023-04-24T01:09:13;23.80;;;13.80;;
77880;SDS011;67077;50.298;18.996;2023-04-24T01:11:43;25.70;;;14.70;;
77880;SDS011;67077;50.298;18.996;2023-04-24T01:14:11;28.50;;;15.40;;
77880;SDS011;67077;50.298;18.996;2023-04-24T01:16:39;27.10;;;16.10;;
77880;SDS011;67077;50.298;18.996;2023-04-24T01:19:08;33.70;;;17.40;;
77880;SDS011;67077;50.298;18.996;2023-04-24T01:21:40;33.00;;;17.70;;
77880;SDS011;67077;50.298;18.996;2023-04-24T01:24:09;32.30;;;18.20;;
77880;SDS011;67077;50.298;18.996;2023-04-24T01:26:37;31.20;;;18.00;;
77880;SDS011;67077;50.298;18.996;2023-04-24T01:29:05;49.50;;;18.50;;
77880;SDS011;67077;50.298;18.996;2023-04-24T01:31:33;33.00;;;18.90;;
77880;SDS011;67077;50.298;18.996;2023-04-24T01:34:03;31.50;;;18.80;;
77880;SDS011;67077;50.298;18.996;2023-04-24T01:36:31;27.80;;;16.80;;
77880;SDS011;67077;50.298;18.996;2023-04-24T01:38:59;26.20;;;16.50;;
77880;SDS011;67077;50.298;18.996;2023-04-24T01:41:28;28.50;;;17.00;;
77880;SDS011;67077;50.298;18.996;2023-04-24T01:43:56;28.90;;;16.50;;
77880;SDS011;67077;50.298;18.996;2023-04-24T01:46:25;27.30;;;16.20;;
77880;SDS011;67077;50.298;18.996;2023-04-24T01:48:54;29.20;;;16.10;;
77880;SDS011;67077;50.298;18.996;2023-04-24T01:51:23;24.90;;;14.50;;
77880;SDS011;67077;50.298;18.996;2023-04-24T01:53:51;26.00;;;13.80;;
77880;SDS011;67077;50.298;18.996;2023-04-24T01:56:19;24.90;;;14.20;;
77880;SDS011;67077;50.298;18.996;2023-04-24T01:58:49;24.20;;;13.80;;
77880;SDS011;67077;50.298;18.996;2023-04-24T02:01:20;25.30;;;14.20;;
77880;SDS011;67077;50.298;18.996;2023-04-24T02:03:48;22.10;;;12.60;;
77880;SDS011;67077;50.298;18.996;2023-04-24T02:06:16;23.00;;;13.00;;
77880;SDS011;67077;50.298;18.996;2023-04-24T02:08:44;22.80;;;14.00;;
77880;SDS011;67077;50.298;18.996;2023-04-24T02:11:12;22.50;;;13.00;;
77880;SDS011;67077;50.298;18.996;2023-04-24T02:13:40;24.30;;;12.90;;
77880;SDS011;67077;50.298;18.996;2023-04-24T02:16:09;21.70;;;13.20;;
77880;SDS011;67077;50.298;18.996;2023-04-24T02:18:37;22.40;;;12.20;;
77880;SDS011;67077;50.298;18.996;2023-04-24T02:21:05;21.40;;;12.60;;
77880;SDS011;67077;50.298;18.996;2023-04-24T02:23:33;19.00;;;11.70;;
77880;SDS011;67077;50.298;18.996;2023-04-24T02:26:01;22.40;;;12.50;;
77880;SDS011;67077;50.298;18.996;2023-04-24T02:28:29;20.00;;;12.10;;
77880;SDS011;67077;50.298;18.996;2023-04-24T02:30:57;21.60;;;12.20;;
77880;SDS011;67077;50.298;18.996;2023-04-24T02:33:26;21.10;;;12.00;;
77880;SDS011;67077;50.298;18.996;2023-04-24T02:35:54;18.90;;;12.30;;
77880;SDS011;67077;50.298;18.996;2023-04-24T02:38:22;18.80;;;11.60;;
77880;SDS011;67077;50.298;18.996;2023-04-24T02:40:50;20.50;;;11.20;;
77880;SDS011;67077;50.298;18.996;2023-04-24T02:43:18;19.80;;;11.20;;
77880;SDS011;67077;50.298;18.996;2023-04-24T02:45:46;18.40;;;10.90;;
77880;SDS011;67077;50.298;18.996;2023-04-24T02:48:14;15.70;;;10.60;;
77880;SDS011;67077;50.298;18.996;2023-04-24T02:50:42;19.20;;;10.80;;
77880;SDS011;67077;50.298;18.996;2023-04-24T02:53:10;19.40;;;10.60;;
77880;SDS011;67077;50.298;18.996;2023-04-24T02:55:38;19.60;;;10.40;;
77880;SDS011;67077;50.298;18.996;2023-04-24T02:58:06;19.40;;;10.80;;
77880;SDS011;67077;50.298;18.996;2023-04-24T03:00:34;15.70;;;9.80;;
77880;SDS011;67077;50.298;18.996;2023-04-24T03:03:01;17.20;;;10.40;;
77880;SDS011;67077;50.298;18.996;2023-04-24T03:05:30;17.10;;;10.50;;
77880;SDS011;67077;50.298;18.996;2023-04-24T03:07:59;21.20;;;10.70;;
77880;SDS011;67077;50.298;18.996;2023-04-24T03:10:27;20.00;;;10.20;;
77880;SDS011;67077;50.298;18.996;2023-04-24T03:12:54;20.20;;;10.60;;
77880;SDS011;67077;50.298;18.996;2023-04-24T03:15:23;13.50;;;9.30;;
77880;SDS011;67077;50.298;18.996;2023-04-24T03:17:50;15.80;;;8.90;;
77880;SDS011;67077;50.298;18.996;2023-04-24T03:20:19;16.20;;;9.50;;
77880;SDS011;67077;50.298;18.996;2023-04-24T03:22:47;15.70;;;8.70;;
77880;SDS011;67077;50.298;18.996;2023-04-24T03:25:16;15.60;;;9.50;;
77880;SDS011;67077;50.298;18.996;2023-04-24T03:27:44;15.40;;;9.30;;
77880;SDS011;67077;50.298;18.996;2023-04-24T03:30:12;18.10;;;9.80;;
77880;SDS011;67077;50.298;18.996;2023-04-24T03:32:40;15.40;;;9.00;;
77880;SDS011;67077;50.298;18.996;2023-04-24T03:35:08;13.60;;;8.90;;
77880;SDS011;67077;50.298;18.996;2023-04-24T03:37:36;16.30;;;9.40;;
77880;SDS011;67077;50.298;18.996;2023-04-24T03:40:04;14.80;;;8.90;;
77880;SDS011;67077;50.298;18.996;2023-04-24T03:42:34;18.40;;;9.60;;
77880;SDS011;67077;50.298;18.996;2023-04-24T03:45:02;19.00;;;9.30;;
77880;SDS011;67077;50.298;18.996;2023-04-24T03:47:31;17.80;;;9.00;;
77880;SDS011;67077;50.298;18.996;2023-04-24T03:49:59;14.70;;;9.30;;
77880;SDS011;67077;50.298;18.996;2023-04-24T03:52:27;15.90;;;9.30;;
77880;SDS011;67077;50.298;18.996;2023-04-24T03:54:55;15.80;;;9.40;;
77880;SDS011;67077;50.298;18.996;2023-04-24T03:57:23;16.00;;;9.30;;
77880;SDS011;67077;50.298;18.996;2023-04-24T03:59:51;14.80;;;8.90;;
77880;SDS011;67077;50.298;18.996;2023-04-24T04:02:21;16.20;;;9.00;;
77880;SDS011;67077;50.298;18.996;2023-04-24T04:04:49;14.30;;;9.10;;
77880;SDS011;67077;50.298;18.996;2023-04-24T04:07:17;13.00;;;8.90;;
77880;SDS011;67077;50.298;18.996;2023-04-24T04:09:45;15.40;;;8.90;;
77880;SDS011;67077;50.298;18.996;2023-04-24T04:12:13;16.20;;;9.10;;
77880;SDS011;67077;50.298;18.996;2023-04-24T04:14:41;14.00;;;8.60;;
77880;SDS011;67077;50.298;18.996;2023-04-24T04:17:09;16.20;;;8.50;;
77880;SDS011;67077;50.298;18.996;2023-04-24T04:19:38;18.00;;;8.70;;
77880;SDS011;67077;50.298;18.996;2023-04-24T04:22:06;15.60;;;8.40;;
77880;SDS011;67077;50.298;18.996;2023-04-24T04:24:35;17.10;;;8.80;;
77880;SDS011;67077;50.298;18.996;2023-04-24T04:27:05;13.90;;;8.80;;
77880;SDS011;67077;50.298;18.996;2023-04-24T04:29:33;16.60;;;9.10;;
77880;SDS011;67077;50.298;18.996;2023-04-24T04:32:02;16.30;;;8.40;;
77880;SDS011;67077;50.298;18.996;2023-04-24T04:34:30;13.80;;;8.80;;
77880;SDS011;67077;50.298;18.996;2023-04-24T04:36:58;15.00;;;8.80;;
77880;SDS011;67077;50.298;18.996;2023-04-24T04:39:29;15.30;;;8.80;;
77880;SDS011;67077;50.298;18.996;2023-04-24T04:41:58;15.60;;;9.30;;
77880;SDS011;67077;50.298;18.996;2023-04-24T04:44:26;15.70;;;9.20;;
77880;SDS011;67077;50.298;18.996;2023-04-24T04:46:55;17.20;;;9.70;;
77880;SDS011;67077;50.298;18.996;2023-04-24T04:49:23;18.00;;;9.40;;
77880;SDS011;67077;50.298;18.996;2023-04-24T04:51:52;15.10;;;9.30;;
77880;SDS011;67077;50.298;18.996;2023-04-24T04:54:20;18.80;;;10.00;;
77880;SDS011;67077;50.298;18.996;2023-04-24T04:56:51;18.30;;;9.80;;
77880;SDS011;67077;50.298;18.996;2023-04-24T04:59:19;17.50;;;10.20;;
77880;SDS011;67077;50.298;18.996;2023-04-24T05:01:47;14.80;;;9.40;;
77880;SDS011;67077;50.298;18.996;2023-04-24T05:04:15;13.90;;;8.90;;
77880;SDS011;67077;50.298;18.996;2023-04-24T05:06:43;13.80;;;8.60;;
77880;SDS011;67077;50.298;18.996;2023-04-24T05:09:12;14.50;;;8.40;;
77880;SDS011;67077;50.298;18.996;2023-04-24T05:11:40;16.10;;;9.30;;
77880;SDS011;67077;50.298;18.996;2023-04-24T05:14:08;17.90;;;8.40;;
77880;SDS011;67077;50.298;18.996;2023-04-24T05:16:36;15.50;;;8.50;;
77880;SDS011;67077;50.298;18.996;2023-04-24T05:19:04;14.90;;;8.40;;
77880;SDS011;67077;50.298;18.996;2023-04-24T05:21:33;12.50;;;8.20;;
77880;SDS011;67077;50.298;18.996;2023-04-24T05:24:01;14.70;;;7.70;;
77880;SDS011;67077;50.298;18.996;2023-04-24T05:26:29;16.30;;;9.20;;
77880;SDS011;67077;50.298;18.996;2023-04-24T05:28:57;12.60;;;7.70;;
77880;SDS011;67077;50.298;18.996;2023-04-24T05:31:25;21.80;;;7.70;;
77880;SDS011;67077;50.298;18.996;2023-04-24T05:33:53;14.90;;;7.70;;
77880;SDS011;67077;50.298;18.996;2023-04-24T05:36:21;12.80;;;7.30;;
77880;SDS011;67077;50.298;18.996;2023-04-24T05:38:49;12.20;;;7.40;;
77880;SDS011;67077;50.298;18.996;2023-04-24T05:41:20;16.00;;;8.00;;
77880;SDS011;67077;50.298;18.996;2023-04-24T05:43:50;16.60;;;8.40;;
77880;SDS011;67077;50.298;18.996;2023-04-24T05:46:18;12.80;;;7.60;;
77880;SDS011;67077;50.298;18.996;2023-04-24T05:48:46;21.30;;;9.00;;
77880;SDS011;67077;50.298;18.996;2023-04-24T05:51:14;16.80;;;9.00;;
77880;SDS011;67077;50.298;18.996;2023-04-24T05:53:42;18.10;;;8.90;;
77880;SDS011;67077;50.298;18.996;2023-04-24T05:56:11;15.30;;;9.00;;
77880;SDS011;67077;50.298;18.996;2023-04-24T05:58:39;19.50;;;9.40;;
77880;SDS011;67077;50.298;18.996;2023-04-24T06:03:55;21.70;;;9.90;;
77880;SDS011;67077;50.298;18.996;2023-04-24T06:06:52;19.60;;;10.30;;
77880;SDS011;67077;50.298;18.996;2023-04-24T06:09:23;24.70;;;12.10;;
77880;SDS011;67077;50.298;18.996;2023-04-24T06:11:53;24.80;;;11.20;;
77880;SDS011;67077;50.298;18.996;2023-04-24T06:14:21;19.40;;;10.80;;
77880;SDS011;67077;50.298;18.996;2023-04-24T06:16:49;19.40;;;9.90;;
77880;SDS011;67077;50.298;18.996;2023-04-24T06:19:17;22.80;;;10.00;;
77880;SDS011;67077;50.298;18.996;2023-04-24T06:21:45;16.90;;;9.40;;
77880;SDS011;67077;50.298;18.996;2023-04-24T06:24:16;15.90;;;8.40;;
77880;SDS011;67077;50.298;18.996;2023-04-24T06:26:44;19.30;;;8.70;;
77880;SDS011;67077;50.298;18.996;2023-04-24T06:29:13;16.70;;;8.60;;
77880;SDS011;67077;50.298;18.996;2023-04-24T06:31:41;15.50;;;7.50;;
77880;SDS011;67077;50.298;18.996;2023-04-24T06:34:09;19.20;;;8.30;;
77880;SDS011;67077;50.298;18.996;2023-04-24T06:36:37;20.20;;;8.80;;
77880;SDS011;67077;50.298;18.996;2023-04-24T06:39:05;20.10;;;9.40;;
77880;SDS011;67077;50.298;18.996;2023-04-24T06:41:34;18.30;;;9.10;;
77880;SDS011;67077;50.298;18.996;2023-04-24T06:44:02;23.00;;;9.30;;
77880;SDS011;67077;50.298;18.996;2023-04-24T06:46:30;16.30;;;8.60;;
77880;SDS011;67077;50.298;18.996;2023-04-24T06:48:58;22.50;;;9.30;;
77880;SDS011;67077;50.298;18.996;2023-04-24T06:51:29;17.20;;;8.10;;
77880;SDS011;67077;50.298;18.996;2023-04-24T06:53:56;18.10;;;8.80;;
77880;SDS011;67077;50.298;18.996;2023-04-24T06:56:25;18.20;;;8.20;;
77880;SDS011;67077;50.298;18.996;2023-04-24T06:58:53;19.20;;;8.30;;
77880;SDS011;67077;50.298;18.996;2023-04-24T07:01:21;22.40;;;8.20;;
77880;SDS011;67077;50.298;18.996;2023-04-24T07:03:50;17.20;;;7.50;;
77880;SDS011;67077;50.298;18.996;2023-04-24T07:06:17;20.60;;;8.20;;
77880;SDS011;67077;50.298;18.996;2023-04-24T07:08:48;14.10;;;7.20;;
77880;SDS011;67077;50.298;18.996;2023-04-24T07:11:17;14.50;;;6.90;;
77880;SDS011;67077;50.298;18.996;2023-04-24T07:13:45;9.40;;;5.80;;
77880;SDS011;67077;50.298;18.996;2023-04-24T07:16:13;11.90;;;5.60;;
77880;SDS011;67077;50.298;18.996;2023-04-24T07:18:41;10.10;;;5.80;;
77880;SDS011;67077;50.298;18.996;2023-04-24T07:21:09;9.60;;;5.90;;
77880;SDS011;67077;50.298;18.996;2023-04-24T07:23:38;8.30;;;5.70;;
77880;SDS011;67077;50.298;18.996;2023-04-24T07:26:06;9.00;;;5.60;;
77880;SDS011;67077;50.298;18.996;2023-04-24T07:28:34;10.60;;;5.60;;
77880;SDS011;67077;50.298;18.996;2023-04-24T07:31:02;9.60;;;5.70;;
77880;SDS011;67077;50.298;18.996;2023-04-24T07:33:30;7.70;;;5.30;;
77880;SDS011;67077;50.298;18.996;2023-04-24T07:35:58;8.10;;;5.00;;
77880;SDS011;67077;50.298;18.996;2023-04-24T07:38:28;6.90;;;5.10;;
77880;SDS011;67077;50.298;18.996;2023-04-24T07:40:57;8.30;;;5.70;;
77880;SDS011;67077;50.298;18.996;2023-04-24T07:43:25;9.70;;;5.30;;
77880;SDS011;67077;50.298;18.996;2023-04-24T07:45:53;8.10;;;5.10;;
77880;SDS011;67077;50.298;18.996;2023-04-24T07:48:21;7.80;;;5.70;;
77880;SDS011;67077;50.298;18.996;2023-04-24T07:50:55;10.10;;;5.60;;
77880;SDS011;67077;50.298;18.996;2023-04-24T07:53:23;6.90;;;5.10;;
77880;SDS011;67077;50.298;18.996;2023-04-24T07:55:51;6.90;;;5.00;;
77880;SDS011;67077;50.298;18.996;2023-04-24T07:58:19;9.30;;;5.60;;
77880;SDS011;67077;50.298;18.996;2023-04-24T08:00:47;9.90;;;6.20;;
77880;SDS011;67077;50.298;18.996;2023-04-24T08:03:58;11.00;;;5.00;;
77880;SDS011;67077;50.298;18.996;2023-04-24T08:06:26;9.70;;;5.10;;
77880;SDS011;67077;50.298;18.996;2023-04-24T08:08:57;11.80;;;5.20;;
77880;SDS011;67077;50.298;18.996;2023-04-24T08:11:26;11.30;;;5.30;;
77880;SDS011;67077;50.298;18.996;2023-04-24T08:13:58;10.10;;;5.00;;
77880;SDS011;67077;50.298;18.996;2023-04-24T08:16:26;8.00;;;5.10;;
77880;SDS011;67077;50.298;18.996;2023-04-24T08:18:54;14.40;;;5.30;;
77880;SDS011;67077;50.298;18.996;2023-04-24T08:21:22;8.10;;;5.20;;
77880;SDS011;67077;50.298;18.996;2023-04-24T08:23:50;9.00;;;5.60;;
77880;SDS011;67077;50.298;18.996;2023-04-24T08:26:18;9.60;;;5.70;;
77880;SDS011;67077;50.298;18.996;2023-04-24T08:28:56;12.60;;;5.50;;
77880;SDS011;67077;50.298;18.996;2023-04-24T08:31:55;8.40;;;5.30;;
77880;SDS011;67077;50.298;18.996;2023-04-24T08:34:23;9.30;;;5.10;;
77880;SDS011;67077;50.298;18.996;2023-04-24T08:36:52;9.20;;;5.20;;
77880;SDS011;67077;50.298;18.996;2023-04-24T08:39:26;10.10;;;5.10;;
77880;SDS011;67077;50.298;18.996;2023-04-24T08:42:23;10.00;;;5.10;;
77880;SDS011;67077;50.298;18.996;2023-04-24T08:44:52;7.90;;;4.90;;
77880;SDS011;67077;50.298;18.996;2023-04-24T08:57:50;8.20;;;4.90;;
77880;SDS011;67077;50.298;18.996;2023-04-24T09:00:35;11.30;;;5.10;;
77880;SDS011;67077;50.298;18.996;2023-04-24T09:05:53;7.90;;;4.40;;
77880;SDS011;67077;50.298;18.996;2023-04-24T09:08:24;9.80;;;4.50;;
77880;SDS011;67077;50.298;18.996;2023-04-24T09:10:53;8.00;;;4.60;;
77880;SDS011;67077;50.298;18.996;2023-04-24T09:13:27;6.50;;;4.30;;
77880;SDS011;67077;50.298;18.996;2023-04-24T09:15:56;6.30;;;4.60;;
77880;SDS011;67077;50.298;18.996;2023-04-24T09:18:26;7.30;;;4.50;;
77880;SDS011;67077;50.298;18.996;2023-04-24T09:21:09;8.30;;;5.00;;
77880;SDS011;67077;50.298;18.996;2023-04-24T09:23:39;6.80;;;4.50;;
77880;SDS011;67077;50.298;18.996;2023-04-24T09:26:09;10.80;;;4.70;;
77880;SDS011;67077;50.298;18.996;2023-04-24T09:28:41;6.50;;;4.80;;
77880;SDS011;67077;50.298;18.996;2023-04-24T09:31:18;8.70;;;4.60;;
77880;SDS011;67077;50.298;18.996;2023-04-24T09:33:55;6.60;;;4.20;;
77880;SDS011;67077;50.298;18.996;2023-04-24T09:36:48;6.70;;;4.90;;
77880;SDS011;67077;50.298;18.996;2023-04-24T09:39:16;7.00;;;4.70;;
77880;SDS011;67077;50.298;18.996;2023-04-24T09:41:58;7.40;;;5.00;;
77880;SDS011;67077;50.298;18.996;2023-04-24T09:44:42;8.10;;;4.90;;
77880;SDS011;67077;50.298;18.996;2023-04-24T09:47:12;11.90;;;4.90;;
77880;SDS011;67077;50.298;18.996;2023-04-24T09:53:23;6.60;;;5.10;;
77880;SDS011;67077;50.298;18.996;2023-04-24T09:55:52;6.10;;;4.70;;
77880;SDS011;67077;50.298;18.996;2023-04-24T09:58:26;6.40;;;5.10;;
77880;SDS011;67077;50.298;18.996;2023-04-24T10:00:54;7.00;;;5.30;;
77880;SDS011;67077;50.298;18.996;2023-04-24T10:03:24;10.50;;;4.80;;
77880;SDS011;67077;50.298;18.996;2023-04-24T10:08:37;6.90;;;4.40;;
77880;SDS011;67077;50.298;18.996;2023-04-24T10:11:06;9.70;;;5.10;;
77880;SDS011;67077;50.298;18.996;2023-04-24T10:13:36;8.00;;;5.00;;
77880;SDS011;67077;50.298;18.996;2023-04-24T10:16:08;7.40;;;5.00;;
77880;SDS011;67077;50.298;18.996;2023-04-24T10:21:25;7.30;;;5.10;;
77880;SDS011;67077;50.298;18.996;2023-04-24T10:23:59;12.80;;;5.10;;
77880;SDS011;67077;50.298;18.996;2023-04-24T10:26:45;8.60;;;4.70;;
77880;SDS011;67077;50.298;18.996;2023-04-24T10:29:25;6.40;;;5.00;;
77880;SDS011;67077;50.298;18.996;2023-04-24T10:38:18;8.00;;;4.70;;
77880;SDS011;67077;50.298;18.996;2023-04-24T10:41:07;6.40;;;4.60;;
77880;SDS011;67077;50.298;18.996;2023-04-24T10:43:39;6.80;;;4.80;;
77880;SDS011;67077;50.298;18.996;2023-04-24T10:48:42;12.90;;;5.00;;
77880;SDS011;67077;50.298;18.996;2023-04-24T11:09:21;9.60;;;5.10;;
77880;SDS011;67077;50.298;18.996;2023-04-24T11:12:15;6.50;;;4.90;;
77880;SDS011;67077;50.298;18.996;2023-04-24T11:15:12;7.80;;;4.80;;
77880;SDS011;67077;50.298;18.996;2023-04-24T11:17:42;8.00;;;4.60;;
77880;SDS011;67077;50.298;18.996;2023-04-24T11:20:32;10.20;;;4.70;;
77880;SDS011;67077;50.298;18.996;2023-04-24T11:23:03;6.40;;;4.80;;
77880;SDS011;67077;50.298;18.996;2023-04-24T11:25:38;8.30;;;4.60;;
77880;SDS011;67077;50.298;18.996;2023-04-24T11:28:20;6.90;;;5.10;;
77880;SDS011;67077;50.298;18.996;2023-04-24T11:40:35;8.70;;;5.50;;
77880;SDS011;67077;50.298;18.996;2023-04-24T11:43:32;11.10;;;6.10;;
77880;SDS011;67077;50.298;18.996;2023-04-24T11:46:22;13.50;;;5.50;;
77880;SDS011;67077;50.298;18.996;2023-04-24T11:49:00;11.70;;;5.70;;
77880;SDS011;67077;50.298;18.996;2023-04-24T11:51:29;11.60;;;5.80;;
77880;SDS011;67077;50.298;18.996;2023-04-24T12:06:32;12.70;;;5.90;;
77880;SDS011;67077;50.298;18.996;2023-04-24T12:09:01;9.60;;;5.70;;
77880;SDS011;67077;50.298;18.996;2023-04-24T12:11:30;10.50;;;5.70;;
77880;SDS011;67077;50.298;18.996;2023-04-24T12:14:09;9.90;;;6.10;;
77880;SDS011;67077;50.298;18.996;2023-04-24T12:16:38;10.20;;;6.00;;
77880;SDS011;67077;50.298;18.996;2023-04-24T12:19:06;10.10;;;6.30;;
77880;SDS011;67077;50.298;18.996;2023-04-24T12:21:34;12.20;;;6.00;;
77880;SDS011;67077;50.298;18.996;2023-04-24T12:24:05;10.30;;;6.20;;
77880;SDS011;67077;50.298;18.996;2023-04-24T12:26:35;8.30;;;5.90;;
77880;SDS011;67077;50.298;18.996;2023-04-24T12:29:20;8.20;;;5.60;;
77880;SDS011;67077;50.298;18.996;2023-04-24T12:31:50;9.90;;;5.70;;
77880;SDS011;67077;50.298;18.996;2023-04-24T12:37:20;7.70;;;5.30;;
77880;SDS011;67077;50.298;18.996;2023-04-24T12:45:12;9.30;;;5.40;;
77880;SDS011;67077;50.298;18.996;2023-04-24T12:47:43;10.30;;;5.00;;
77880;SDS011;67077;50.298;18.996;2023-04-24T12:50:14;6.90;;;5.30;;
77880;SDS011;67077;50.298;18.996;2023-04-24T12:52:44;8.90;;;5.40;;
77880;SDS011;67077;50.298;18.996;2023-04-24T12:55:13;5.80;;;4.90;;
77880;SDS011;67077;50.298;18.996;2023-04-24T12:57:44;8.60;;;5.40;;
77880;SDS011;67077;50.298;18.996;2023-04-24T13:00:13;7.60;;;5.60;;
77880;SDS011;67077;50.298;18.996;2023-04-24T13:02:41;8.90;;;5.80;;
77880;SDS011;67077;50.298;18.996;2023-04-24T13:05:15;7.50;;;5.40;;
77880;SDS011;67077;50.298;18.996;2023-04-24T13:07:48;10.50;;;5.30;;
77880;SDS011;67077;50.298;18.996;2023-04-24T13:10:16;7.00;;;5.10;;
77880;SDS011;67077;50.298;18.996;2023-04-24T13:12:45;5.40;;;4.50;;
77880;SDS011;67077;50.298;18.996;2023-04-24T13:15:14;5.50;;;4.30;;
77880;SDS011;67077;50.298;18.996;2023-04-24T13:17:44;7.30;;;4.10;;
77880;SDS011;67077;50.298;18.996;2023-04-24T13:31:27;6.30;;;3.20;;
77880;SDS011;67077;50.298;18.996;2023-04-24T13:33:55;3.30;;;3.00;;
77880;SDS011;67077;50.298;18.996;2023-04-24T13:36:24;4.20;;;3.30;;
77880;SDS011;67077;50.298;18.996;2023-04-24T13:38:52;4.70;;;3.60;;
77880;SDS011;67077;50.298;18.996;2023-04-24T13:41:22;4.60;;;3.60;;
77880;SDS011;67077;50.298;18.996;2023-04-24T13:43:51;6.80;;;3.40;;
77880;SDS011;67077;50.298;18.996;2023-04-24T13:46:19;4.50;;;3.60;;
77880;SDS011;67077;50.298;18.996;2023-04-24T13:51:22;4.60;;;3.60;;
77880;SDS011;67077;50.298;18.996;2023-04-24T13:53:51;6.00;;;3.60;;
77880;SDS011;67077;50.298;18.996;2023-04-24T13:56:20;4.50;;;3.70;;
77880;SDS011;67077;50.298;18.996;2023-04-24T13:58:51;5.10;;;3.70;;
77880;SDS011;67077;50.298;18.996;2023-04-24T14:01:19;6.60;;;4.00;;
77880;SDS011;67077;50.298;18.996;2023-04-24T14:04:11;6.70;;;4.30;;
77880;SDS011;67077;50.298;18.996;2023-04-24T14:06:40;6.30;;;4.50;;
77880;SDS011;67077;50.298;18.996;2023-04-24T14:09:19;6.60;;;5.20;;
77880;SDS011;67077;50.298;18.996;2023-04-24T14:11:48;7.40;;;5.40;;
77880;SDS011;67077;50.298;18.996;2023-04-24T14:14:29;9.50;;;5.20;;
77880;SDS011;67077;50.298;18.996;2023-04-24T14:17:06;9.00;;;5.20;;
77880;SDS011;67077;50.298;18.996;2023-04-24T14:19:52;8.40;;;6.30;;
77880;SDS011;67077;50.298;18.996;2023-04-24T14:22:28;7.90;;;5.90;;
77880;SDS011;67077;50.298;18.996;2023-04-24T14:29:12;8.70;;;6.40;;
77880;SDS011;67077;50.298;18.996;2023-04-24T14:34:28;9.00;;;7.00;;
77880;SDS011;67077;50.298;18.996;2023-04-24T14:36:59;8.80;;;6.50;;
77880;SDS011;67077;50.298;18.996;2023-04-24T14:39:28;9.90;;;6.40;;
77880;SDS011;67077;50.298;18.996;2023-04-24T14:44:45;7.50;;;5.80;;
77880;SDS011;67077;50.298;18.996;2023-04-24T14:47:19;8.50;;;5.30;;
77880;SDS011;67077;50.298;18.996;2023-04-24T14:50:22;8.00;;;4.80;;
77880;SDS011;67077;50.298;18.996;2023-04-24T14:52:52;6.30;;;4.60;;
77880;SDS011;67077;50.298;18.996;2023-04-24T14:55:22;9.30;;;5.30;;
77880;SDS011;67077;50.298;18.996;2023-04-24T14:57:55;6.60;;;5.10;;
77880;SDS011;67077;50.298;18.996;2023-04-24T15:00:25;8.60;;;5.50;;
77880;SDS011;67077;50.298;18.996;2023-04-24T15:05:42;9.00;;;5.60;;
77880;SDS011;67077;50.298;18.996;2023-04-24T15:08:10;7.70;;;5.40;;
77880;SDS011;67077;50.298;18.996;2023-04-24T15:10:56;6.80;;;5.20;;
77880;SDS011;67077;50.298;18.996;2023-04-24T15:13:26;7.00;;;5.00;;
77880;SDS011;67077;50.298;18.996;2023-04-24T15:15:56;8.40;;;6.60;;
77880;SDS011;67077;50.298;18.996;2023-04-24T15:18:44;9.00;;;5.20;;
77880;SDS011;67077;50.298;18.996;2023-04-24T15:21:15;7.60;;;5.30;;
77880;SDS011;67077;50.298;18.996;2023-04-24T15:23:46;8.60;;;6.10;;
77880;SDS011;67077;50.298;18.996;2023-04-24T15:26:16;7.70;;;4.90;;
77880;SDS011;67077;50.298;18.996;2023-04-24T15:28:58;6.20;;;4.80;;
77880;SDS011;67077;50.298;18.996;2023-04-24T15:31:51;8.50;;;5.10;;
77880;SDS011;67077;50.298;18.996;2023-04-24T15:34:56;6.00;;;4.50;;
77880;SDS011;67077;50.298;18.996;2023-04-24T15:37:41;6.60;;;5.20;;
77880;SDS011;67077;50.298;18.996;2023-04-24T15:40:12;6.20;;;4.90;;
77880;SDS011;67077;50.298;18.996;2023-04-24T15:43:02;8.80;;;4.80;;
77880;SDS011;67077;50.298;18.996;2023-04-24T15:48:38;5.00;;;4.40;;
77880;SDS011;67077;50.298;18.996;2023-04-24T15:51:14;8.00;;;4.80;;
77880;SDS011;67077;50.298;18.996;2023-04-24T15:53:48;5.10;;;4.40;;
77880;SDS011;67077;50.298;18.996;2023-04-24T15:56:18;5.90;;;4.80;;
77880;SDS011;67077;50.298;18.996;2023-04-24T15:59:01;7.20;;;5.10;;
77880;SDS011;67077;50.298;18.996;2023-04-24T16:05:05;6.00;;;4.30;;
77880;SDS011;67077;50.298;18.996;2023-04-24T16:07:37;7.20;;;4.60;;
77880;SDS011;67077;50.298;18.996;2023-04-24T16:10:20;6.90;;;4.60;;
77880;SDS011;67077;50.298;18.996;2023-04-24T16:13:01;6.80;;;4.30;;
77880;SDS011;67077;50.298;18.996;2023-04-24T16:18:23;7.20;;;4.80;;
77880;SDS011;67077;50.298;18.996;2023-04-24T16:21:16;8.10;;;5.00;;
77880;SDS011;67077;50.298;18.996;2023-04-24T16:35:28;7.80;;;5.60;;
77880;SDS011;67077;50.298;18.996;2023-04-24T16:38:21;7.40;;;5.50;;
77880;SDS011;67077;50.298;18.996;2023-04-24T16:41:15;8.30;;;5.70;;
77880;SDS011;67077;50.298;18.996;2023-04-24T16:44:16;7.20;;;5.90;;
77880;SDS011;67077;50.298;18.996;2023-04-24T16:46:45;9.30;;;6.10;;
77880;SDS011;67077;50.298;18.996;2023-04-24T16:49:14;8.70;;;6.80;;
77880;SDS011;67077;50.298;18.996;2023-04-24T16:51:41;7.30;;;5.90;;
77880;SDS011;67077;50.298;18.996;2023-04-24T16:54:18;8.30;;;5.70;;
77880;SDS011;67077;50.298;18.996;2023-04-24T16:56:46;7.70;;;6.20;;
77880;SDS011;67077;50.298;18.996;2023-04-24T16:59:18;12.50;;;6.50;;